»·PEaware :: N622SB KSAN-KPSP

N622SB :: KSAN-KPSP

FLIGHT INFORMATION

Flight Status: Arrived
Operator: Privately registered:
United States
More flights under this callsign
Pilot: Simon B. (27931)
Aircraft: Unknown
(/A)
More flights by this aircraft type
Origin: KSAN San Diego Intl-Lindbergh
United States
Destination: KPSP Palm Springs Intl
United States
More flights between these airports :: More routes between these airports
Route: +JLI
File this flight plan on PilotEdge
Remarks:
Altitude:
(Current/Filed)
7,500ft
Speed:
(Current/Filed)
110kts
Departed: 13-Feb-20 10:24 PM
Arrived: 13-Feb-20 11:13 PM
Distance/Time
Traveled:
0nm/0:49
Distance/Time
To Go:
Arrived

Flight Plot

Page will automatically refresh every two minutes.


Map Options




Map Legend


Flown Route
Filed Route
Departure Airport
Arrival Airport
Navaid (VOR, NDB)
Fix

Horizontal Profiles

Position Reports

Time Latitude Longitude Heading Altitude Ground
Speed
13-Feb-20 22:16 32.733310 -117.181504 16 18ft 0kts
13-Feb-20 22:17 32.733312 -117.181503 16 18ft 0kts
13-Feb-20 22:18 32.733263 -117.181520 16 18ft 1kts
13-Feb-20 22:19 32.732560 -117.181499 181 18ft 7kts
13-Feb-20 22:20 32.731717 -117.178302 105 18ft 16kts
13-Feb-20 22:21 32.730719 -117.175107 193 18ft 0kts
13-Feb-20 22:22 32.730321 -117.176441 287 18ft 19kts
13-Feb-20 22:23 32.734909 -117.197353 285 599ft 80kts
13-Feb-20 22:24 32.744945 -117.221908 321 1392ft 91kts
13-Feb-20 22:25 32.761561 -117.206574 89 1984ft 108kts
13-Feb-20 22:26 32.760722 -117.174026 87 2718ft 89kts
13-Feb-20 22:27 32.761149 -117.146268 98 3459ft 82kts
13-Feb-20 22:28 32.756349 -117.111846 85 3490ft 120kts
13-Feb-20 22:29 32.760816 -117.071894 82 3557ft 117kts
13-Feb-20 22:30 32.771137 -117.039161 53 4038ft 102kts
13-Feb-20 22:31 32.791623 -117.016488 42 4534ft 99kts
13-Feb-20 22:32 32.811988 -116.994685 42 5027ft 97kts
13-Feb-20 22:33 32.831104 -116.972142 46 5521ft 95kts
13-Feb-20 22:34 32.842251 -116.944491 71 6014ft 92kts
13-Feb-20 22:35 32.850774 -116.915754 71 6516ft 92kts
13-Feb-20 22:36 32.859308 -116.886979 71 7013ft 92kts
13-Feb-20 22:37 32.869647 -116.859449 28 7488ft 95kts
13-Feb-20 22:38 32.894275 -116.840480 38 7501ft 116kts
13-Feb-20 22:39 32.919240 -116.816187 41 7502ft 118kts
13-Feb-20 22:40 32.943947 -116.790930 42 7498ft 115kts
13-Feb-20 22:41 32.967937 -116.765666 41 7498ft 114kts
13-Feb-20 22:42 32.992000 -116.740789 42 7500ft 114kts
13-Feb-20 22:43 33.015952 -116.715907 42 7500ft 114kts
13-Feb-20 22:44 33.039944 -116.690886 42 7499ft 114kts
13-Feb-20 22:45 33.063980 -116.665752 42 7497ft 114kts
13-Feb-20 22:46 33.087930 -116.640789 42 7498ft 114kts
13-Feb-20 22:47 33.111879 -116.615799 41 7497ft 114kts
13-Feb-20 22:48 33.135829 -116.590763 42 7498ft 114kts
13-Feb-20 22:49 33.163683 -116.572721 23 7494ft 115kts
13-Feb-20 22:50 33.193259 -116.557919 23 7495ft 115kts
13-Feb-20 22:51 33.222930 -116.542969 26 7495ft 115kts
13-Feb-20 22:52 33.252286 -116.528052 18 7499ft 114kts
13-Feb-20 22:53 33.283521 -116.518422 11 7490ft 116kts
13-Feb-20 22:54 33.315163 -116.511560 9 7494ft 115kts
13-Feb-20 22:55 33.347046 -116.505909 8 7495ft 115kts
13-Feb-20 22:56 33.378895 -116.500889 7 7496ft 115kts
13-Feb-20 22:57 33.410725 -116.496251 7 7501ft 115kts
13-Feb-20 22:58 33.442544 -116.491604 7 7502ft 115kts
13-Feb-20 22:59 33.467295 -116.468909 32 7503ft 115kts
13-Feb-20 23:00 33.496847 -116.454425 11 7507ft 115kts
13-Feb-20 23:01 33.525027 -116.449816 5 8091ft 81kts
13-Feb-20 23:02 33.548729 -116.447453 9 8291ft 111kts
13-Feb-20 23:03 33.585604 -116.438920 354 7492ft 138kts
13-Feb-20 23:04 33.620921 -116.442172 359 7505ft 119kts
13-Feb-20 23:05 33.653258 -116.441694 2 7467ft 106kts
13-Feb-20 23:06 33.681936 -116.446845 349 6653ft 103kts
13-Feb-20 23:07 33.709350 -116.453715 349 5794ft 100kts
13-Feb-20 23:08 33.739308 -116.457680 355 4336ft 111kts
13-Feb-20 23:09 33.769986 -116.456987 339 2821ft 112kts
13-Feb-20 23:10 33.795685 -116.477597 322 1196ft 109kts
13-Feb-20 23:11 33.814201 -116.493935 324 641ft 59kts
13-Feb-20 23:12 33.825271 -116.503734 322 428ft 19kts
13-Feb-20 23:13 33.827705 -116.507001 185 428ft 13kts
13-Feb-20 23:14 33.829383 -116.511387 259 428ft 13kts
13-Feb-20 23:15 33.828871 -116.511575 179 428ft 0kts
13-Feb-20 23:16 33.828871 -116.511575 179 428ft 0kts
13-Feb-20 23:17 33.828871 -116.511575 179 428ft 0kts
13-Feb-20 23:18 32.733300 -117.181508 16 15ft 0kts
13-Feb-20 23:19 32.733300 -117.181508 16 15ft 0kts
13-Feb-20 23:20 32.733300 -117.181508 16 15ft 0kts
13-Feb-20 23:21 32.733300 -117.181508 16 15ft 0kts
13-Feb-20 23:22 32.733300 -117.181508 16 15ft 0kts
13-Feb-20 23:23 32.733300 -117.181508 16 15ft 0kts
13-Feb-20 23:24 32.733300 -117.181508 16 15ft 0kts
13-Feb-20 23:25 32.733300 -117.181508 16 15ft 0kts
13-Feb-20 23:26 32.733300 -117.181508 16 15ft 0kts

Navigation Log

Ident Type
Flight plan parsing failed, navigation log unavailable